Time;durP1;ratioP1;P1;durP2;ratioP2;P2;SDS_P1;SDS_P2;PMS_P1;PMS_P2;Temp;Humidity;BMP_temperature;BMP_pressure;BME280_temperature;BME280_humidity;BME280_pressure;Samples;Min_cycle;Max_cycle;Signal;HPM_P1;HPM_P2
2023/07/02 00:08:12;;;;;;;;;;;26.90;43.00;;;;;;21257676;27;19923;-57
2023/07/02 00:18:16;;;;;;;;;;;26.90;42.70;;;;;;21258110;27;19923;-56
2023/07/02 00:28:17;;;;;;;;;;;26.60;42.80;;;;;;21257792;27;20012;-57
2023/07/02 00:38:18;;;;;;;;;;;26.60;42.90;;;;;;21256353;27;20405;-55
2023/07/02 00:48:18;;;;;;;;;;;26.40;43.00;;;;;;21254135;27;19928;-55
2023/07/02 00:58:20;;;;;;;;;;;26.50;43.00;;;;;;21254742;27;20388;-55
2023/07/02 01:08:21;;;;;;;;;;;26.20;43.40;;;;;;21253331;27;19930;-55
2023/07/02 01:18:22;;;;;;;;;;;26.00;43.70;;;;;;21253163;27;19924;-54
2023/07/02 01:28:24;;;;;;;;;;;25.90;43.90;;;;;;21251353;27;19931;-56
2023/07/02 01:38:25;;;;;;;;;;;25.70;44.20;;;;;;21251725;27;19927;-56
2023/07/02 01:48:26;;;;;;;;;;;25.50;44.70;;;;;;21249801;27;19929;-55
2023/07/02 01:58:26;;;;;;;;;;;25.40;45.10;;;;;;21250546;27;20014;-56
2023/07/02 02:08:27;;;;;;;;;;;25.40;45.10;;;;;;21249714;27;19923;-55
2023/07/02 02:18:28;;;;;;;;;;;25.20;45.70;;;;;;21249442;27;19923;-57
2023/07/02 02:28:28;;;;;;;;;;;25.10;46.10;;;;;;21247492;28;19970;-54
2023/07/02 02:38:29;;;;;;;;;;;24.90;46.50;;;;;;21248238;28;19923;-57
2023/07/02 02:48:29;;;;;;;;;;;24.70;47.00;;;;;;21248172;28;19923;-56
2023/07/02 02:58:30;;;;;;;;;;;24.70;47.20;;;;;;21246250;28;19946;-57
2023/07/02 03:08:31;;;;;;;;;;;24.70;47.20;;;;;;21245695;28;19974;-56
2023/07/02 03:18:32;;;;;;;;;;;24.70;47.40;;;;;;21246864;28;20429;-57
2023/07/02 03:28:34;;;;;;;;;;;24.50;47.90;;;;;;21252941;27;19949;-56
2023/07/02 03:38:35;;;;;;;;;;;24.40;48.20;;;;;;21261248;27;19924;-55
2023/07/02 03:48:35;;;;;;;;;;;24.40;48.60;;;;;;21259088;27;19930;-55
2023/07/02 03:58:36;;;;;;;;;;;24.20;49.20;;;;;;21259559;27;20445;-56
2023/07/02 04:08:37;;;;;;;;;;;24.10;49.50;;;;;;21259101;27;20329;-56
2023/07/02 04:18:37;;;;;;;;;;;24.00;49.70;;;;;;21256946;27;19959;-56
2023/07/02 04:28:38;;;;;;;;;;;23.80;50.00;;;;;;21256118;27;19927;-56
2023/07/02 04:38:39;;;;;;;;;;;23.80;50.10;;;;;;21254355;27;19976;-57
2023/07/02 04:48:39;;;;;;;;;;;23.70;50.60;;;;;;21255887;27;20375;-56
2023/07/02 04:58:40;;;;;;;;;;;23.60;50.90;;;;;;21253331;27;19981;-54
2023/07/02 05:08:41;;;;;;;;;;;23.60;51.20;;;;;;21253610;27;20504;-55
2023/07/02 05:18:41;;;;;;;;;;;23.50;51.40;;;;;;21252329;27;19958;-55
2023/07/02 05:28:42;;;;;;;;;;;23.40;51.40;;;;;;21252492;27;19930;-56
2023/07/02 05:38:43;;;;;;;;;;;23.40;51.50;;;;;;21251622;27;19923;-55
2023/07/02 05:48:43;;;;;;;;;;;23.30;51.60;;;;;;21249299;27;20014;-55
2023/07/02 05:58:45;;;;;;;;;;;23.40;51.60;;;;;;21250150;27;19923;-56
2023/07/02 06:08:46;;;;;;;;;;;23.40;51.60;;;;;;21248675;27;19924;-56
2023/07/02 06:18:46;;;;;;;;;;;23.40;51.70;;;;;;21249963;27;19923;-56
2023/07/02 06:28:47;;;;;;;;;;;23.50;51.20;;;;;;21248283;28;19927;-57
2023/07/02 06:38:47;;;;;;;;;;;23.60;51.00;;;;;;21248629;28;19923;-55
2023/07/02 06:48:48;;;;;;;;;;;23.60;51.30;;;;;;21247041;28;19934;-55
2023/07/02 06:58:49;;;;;;;;;;;23.80;50.70;;;;;;21248509;27;20406;-55
2023/07/02 07:08:49;;;;;;;;;;;24.30;49.80;;;;;;21263690;27;19984;-56
2023/07/02 07:18:50;;;;;;;;;;;24.90;48.30;;;;;;21262448;27;19930;-56
2023/07/02 07:28:50;;;;;;;;;;;25.50;46.90;;;;;;21260606;27;19931;-56
2023/07/02 07:38:51;;;;;;;;;;;25.90;46.10;;;;;;21259623;27;19923;-56
2023/07/02 07:48:52;;;;;;;;;;;26.20;45.50;;;;;;21259194;27;19923;-56
2023/07/02 07:58:52;;;;;;;;;;;26.50;45.10;;;;;;21259576;27;20326;-56
2023/07/02 08:08:53;;;;;;;;;;;26.90;43.90;;;;;;21258857;27;19924;-55
2023/07/02 08:18:53;;;;;;;;;;;27.20;43.50;;;;;;21259124;27;20010;-63
2023/07/02 08:28:54;;;;;;;;;;;27.50;42.90;;;;;;21259455;27;19927;-64
2023/07/02 08:38:55;;;;;;;;;;;27.80;42.50;;;;;;21256180;27;20384;-58
2023/07/02 08:48:55;;;;;;;;;;;28.10;41.80;;;;;;21255548;27;19968;-59
2023/07/02 08:58:56;;;;;;;;;;;28.50;41.50;;;;;;21254698;27;20277;-59
2023/07/02 09:09:03;;;;;;;;;;;28.80;41.10;;;;;;21253677;27;20284;-58
2023/07/02 09:19:08;;;;;;;;;;;29.10;40.50;;;;;;21252281;27;19931;-59
2023/07/02 09:29:08;;;;;;;;;;;29.20;40.50;;;;;;21250715;27;20416;-59
2023/07/02 09:39:13;;;;;;;;;;;29.20;40.90;;;;;;21251615;27;20030;-59
2023/07/02 09:49:14;;;;;;;;;;;29.50;40.90;;;;;;21252141;27;20013;-58
2023/07/02 09:59:15;;;;;;;;;;;29.60;41.20;;;;;;21248599;27;19931;-60
2023/07/02 10:09:16;;;;;;;;;;;29.80;40.90;;;;;;21249771;27;19923;-58
2023/07/02 10:19:17;;;;;;;;;;;30.10;40.70;;;;;;21249518;27;19979;-59
2023/07/02 10:29:18;;;;;;;;;;;30.10;40.40;;;;;;21247545;28;19934;-60
2023/07/02 10:39:19;;;;;;;;;;;30.30;40.30;;;;;;21258114;27;20373;-60
2023/07/02 10:49:20;;;;;;;;;;;30.60;40.00;;;;;;21263780;27;20039;-59
2023/07/02 10:59:24;;;;;;;;;;;30.60;39.30;;;;;;21264560;27;19923;-58
2023/07/02 11:09:26;;;;;;;;;;;30.90;38.60;;;;;;21262642;27;19928;-59
2023/07/02 11:19:26;;;;;;;;;;;31.10;38.10;;;;;;21263076;27;19930;-58
2023/07/02 11:29:30;;;;;;;;;;;31.10;38.00;;;;;;21261016;27;19927;-59
2023/07/02 11:39:31;;;;;;;;;;;31.20;37.20;;;;;;21261401;27;19959;-58
2023/07/02 11:49:32;;;;;;;;;;;31.30;37.10;;;;;;21259171;27;19930;-59
2023/07/02 11:59:33;;;;;;;;;;;31.60;36.60;;;;;;21258142;27;19924;-58
2023/07/02 12:09:33;;;;;;;;;;;31.70;35.70;;;;;;21258795;27;20365;-61
2023/07/02 12:19:34;;;;;;;;;;;32.10;33.80;;;;;;21256966;27;19931;-61
2023/07/02 12:29:36;;;;;;;;;;;32.40;32.90;;;;;;21258749;27;19924;-57
2023/07/02 12:39:36;;;;;;;;;;;32.60;31.60;;;;;;21255375;27;19969;-59
2023/07/02 12:49:37;;;;;;;;;;;32.50;32.40;;;;;;21256124;27;20380;-59
2023/07/02 12:59:38;;;;;;;;;;;32.60;32.00;;;;;;21255012;27;19924;-59
2023/07/02 13:09:38;;;;;;;;;;;33.20;30.50;;;;;;21253191;27;20315;-62
2023/07/02 13:19:39;;;;;;;;;;;33.20;30.20;;;;;;21253750;27;19927;-58
2023/07/02 13:29:39;;;;;;;;;;;33.20;29.90;;;;;;21252067;27;19972;-59
2023/07/02 13:39:40;;;;;;;;;;;32.70;29.30;;;;;;21251926;27;20307;-59
2023/07/02 13:49:41;;;;;;;;;;;33.10;29.40;;;;;;21251490;27;20014;-60
2023/07/02 13:59:41;;;;;;;;;;;33.40;27.70;;;;;;21250997;27;19969;-58
2023/07/02 14:09:42;;;;;;;;;;;33.60;28.70;;;;;;21249846;27;19930;-58
2023/07/02 14:19:43;;;;;;;;;;;33.60;29.20;;;;;;21248575;27;19923;-61
2023/07/02 14:29:44;;;;;;;;;;;33.80;28.60;;;;;;21247737;27;19927;-59
2023/07/02 14:39:44;;;;;;;;;;;33.70;28.50;;;;;;21248859;28;19923;-59
2023/07/02 14:49:45;;;;;;;;;;;33.50;28.90;;;;;;21248088;28;19931;-59
2023/07/02 14:59:47;;;;;;;;;;;33.70;27.40;;;;;;21248120;28;19923;-59
2023/07/02 15:09:48;;;;;;;;;;;34.00;28.10;;;;;;21247128;28;20372;-58
2023/07/02 15:19:48;;;;;;;;;;;34.30;27.70;;;;;;21247875;27;20303;-57
2023/07/02 15:29:49;;;;;;;;;;;34.30;27.30;;;;;;21261279;27;19976;-58
2023/07/02 15:39:50;;;;;;;;;;;34.40;27.20;;;;;;21260754;27;19974;-58
2023/07/02 15:49:50;;;;;;;;;;;34.50;27.10;;;;;;21259419;27;19966;-60
2023/07/02 15:59:52;;;;;;;;;;;34.30;27.40;;;;;;21258343;27;19923;-59
2023/07/02 16:09:53;;;;;;;;;;;34.20;26.60;;;;;;21257682;27;20023;-59
2023/07/02 16:19:53;;;;;;;;;;;34.30;26.40;;;;;;21256392;27;19924;-59
2023/07/02 16:29:56;;;;;;;;;;;34.10;26.70;;;;;;21256063;27;20376;-60
2023/07/02 16:39:56;;;;;;;;;;;34.00;28.00;;;;;;21255095;27;19924;-59
2023/07/02 16:49:59;;;;;;;;;;;33.40;30.00;;;;;;21255216;27;19929;-58
2023/07/02 17:00:01;;;;;;;;;;;33.00;31.10;;;;;;21252693;27;19970;-58
2023/07/02 17:10:01;;;;;;;;;;;32.60;31.10;;;;;;21251804;27;19966;-59
2023/07/02 17:20:02;;;;;;;;;;;32.40;33.40;;;;;;21252213;27;19930;-58
2023/07/02 17:30:05;;;;;;;;;;;32.30;33.30;;;;;;21250401;27;20270;-59
2023/07/02 17:40:09;;;;;;;;;;;32.40;34.30;;;;;;21250649;27;19923;-59
2023/07/02 17:50:11;;;;;;;;;;;32.50;32.40;;;;;;21247266;27;20575;-59
2023/07/02 18:00:12;;;;;;;;;;;32.30;32.40;;;;;;21249119;27;19930;-60
2023/07/02 18:10:13;;;;;;;;;;;32.20;32.40;;;;;;21248881;27;19931;-59
2023/07/02 18:20:15;;;;;;;;;;;32.10;32.30;;;;;;21249867;27;19923;-60
2023/07/02 18:30:15;;;;;;;;;;;32.00;32.80;;;;;;21247365;27;19927;-59
2023/07/02 18:40:21;;;;;;;;;;;31.90;33.10;;;;;;21247674;28;19968;-59
2023/07/02 18:50:22;;;;;;;;;;;31.70;33.50;;;;;;21248248;28;19923;-59
2023/07/02 19:00:23;;;;;;;;;;;31.70;33.60;;;;;;21258187;27;20018;-60
2023/07/02 19:10:23;;;;;;;;;;;31.60;33.70;;;;;;21262134;27;19930;-58
2023/07/02 19:20:24;;;;;;;;;;;31.40;33.90;;;;;;21262719;27;19981;-60
2023/07/02 19:30:25;;;;;;;;;;;31.30;34.20;;;;;;21260321;27;20440;-60
2023/07/02 19:40:26;;;;;;;;;;;31.20;34.70;;;;;;21260989;27;19923;-59
2023/07/02 19:50:27;;;;;;;;;;;31.10;34.90;;;;;;21259318;27;19930;-59
2023/07/02 20:00:28;;;;;;;;;;;31.00;35.00;;;;;;21260214;27;19924;-60
2023/07/02 20:10:28;;;;;;;;;;;30.90;35.20;;;;;;21257376;27;19986;-59
2023/07/02 20:20:30;;;;;;;;;;;30.90;35.30;;;;;;21258457;27;19970;-59
2023/07/02 20:30:31;;;;;;;;;;;30.60;35.90;;;;;;21256433;27;19923;-60
2023/07/02 20:40:31;;;;;;;;;;;30.60;35.80;;;;;;21257231;27;19924;-59
2023/07/02 20:50:32;;;;;;;;;;;30.60;36.00;;;;;;21255847;27;19924;-58
2023/07/02 21:00:33;;;;;;;;;;;30.30;36.80;;;;;;21254698;27;19927;-60
2023/07/02 21:10:33;;;;;;;;;;;30.10;37.30;;;;;;21254174;27;19924;-62
2023/07/02 21:20:40;;;;;;;;;;;30.00;37.80;;;;;;21251666;27;20010;-61
2023/07/02 21:30:45;;;;;;;;;;;30.00;38.20;;;;;;21251216;27;19924;-59
2023/07/02 21:40:46;;;;;;;;;;;30.00;38.00;;;;;;21251973;27;19923;-60
2023/07/02 21:50:46;;;;;;;;;;;29.70;38.50;;;;;;21250180;27;19930;-61
2023/07/02 22:00:47;;;;;;;;;;;29.80;38.50;;;;;;21250753;27;20407;-61
2023/07/02 22:10:48;;;;;;;;;;;29.80;38.80;;;;;;21248854;27;19946;-61
2023/07/02 22:20:49;;;;;;;;;;;29.60;38.90;;;;;;21250922;27;19927;-61
2023/07/02 22:30:49;;;;;;;;;;;29.60;38.30;;;;;;21256794;27;19934;-62
2023/07/02 22:40:51;;;;;;;;;;;29.50;39.40;;;;;;21278112;27;20008;-60
2023/07/02 22:50:51;;;;;;;;;;;29.20;41.00;;;;;;21277289;27;19927;-61
2023/07/02 23:00:52;;;;;;;;;;;29.10;41.90;;;;;;21277225;27;19969;-60
2023/07/02 23:10:52;;;;;;;;;;;28.90;42.90;;;;;;21276628;27;19923;-59
2023/07/02 23:20:54;;;;;;;;;;;28.70;43.50;;;;;;21276178;27;20014;-58
2023/07/02 23:30:54;;;;;;;;;;;28.50;44.20;;;;;;21274433;27;19924;-59
2023/07/02 23:40:56;;;;;;;;;;;28.40;44.30;;;;;;21273168;27;19923;-59
2023/07/02 23:50:57;;;;;;;;;;;28.30;44.40;;;;;;21260457;27;19924;-59
